createdAt,value
2023-01-31T00:01:32.711Z,62.47
2023-01-31T00:04:02.934Z,62.47
2023-01-31T00:06:32.136Z,62.59
2023-01-31T00:09:00.508Z,62.45
2023-01-31T00:11:28.488Z,62.51
2023-01-31T00:13:55.624Z,62.32
2023-01-31T00:16:22.898Z,62.33
2023-01-31T00:18:51.847Z,62.60
2023-01-31T00:21:26.601Z,62.77
2023-01-31T00:23:54.362Z,62.71
2023-01-31T00:26:26.438Z,62.79
2023-01-31T00:28:54.310Z,62.74
2023-01-31T00:31:22.695Z,62.46
2023-01-31T00:33:51.151Z,62.77
2023-01-31T00:36:20.657Z,62.86
2023-01-31T00:38:54.047Z,62.78
2023-01-31T00:41:22.018Z,62.66
2023-01-31T00:43:50.173Z,62.82
2023-01-31T00:46:19.919Z,62.63
2023-01-31T00:48:47.358Z,63.02
2023-01-31T00:51:14.716Z,62.85
2023-01-31T00:53:41.645Z,62.75
2023-01-31T00:56:13.931Z,62.65
2023-01-31T00:58:45.277Z,62.70
2023-01-31T01:01:14.840Z,62.60
2023-01-31T01:03:43.056Z,62.36
2023-01-31T01:06:10.403Z,62.58
2023-01-31T01:08:38.288Z,62.61
2023-01-31T01:11:37.707Z,62.45
2023-01-31T01:14:04.829Z,62.21
2023-01-31T01:16:35.544Z,62.40
2023-01-31T01:19:05.279Z,62.24
2023-01-31T01:21:32.622Z,62.24
2023-01-31T01:24:01.273Z,62.08
2023-01-31T01:26:30.938Z,62.09
2023-01-31T01:28:58.795Z,61.86
2023-01-31T01:31:30.120Z,61.30
2023-01-31T01:34:01.984Z,61.06
2023-01-31T01:36:29.443Z,61.04
2023-01-31T01:38:56.696Z,60.65
2023-01-31T01:41:24.158Z,60.67
2023-01-31T01:43:52.111Z,60.72
2023-01-31T01:46:21.318Z,60.52
2023-01-31T01:48:50.639Z,60.57
2023-01-31T01:51:18.909Z,60.72
2023-01-31T01:53:47.373Z,60.74
2023-01-31T01:56:18.963Z,60.73
2023-01-31T01:58:47.407Z,61.22
2023-01-31T02:01:16.439Z,61.22
2023-01-31T06:07:16.927Z,69.81
2023-01-31T06:09:44.106Z,69.23
2023-01-31T06:12:14.737Z,68.91
2023-01-31T06:14:41.753Z,67.92
2023-01-31T06:17:09.241Z,67.35
2023-01-31T06:19:36.800Z,66.98
2023-01-31T06:22:06.825Z,66.45
2023-01-31T06:24:33.864Z,66.27
2023-01-31T06:27:00.914Z,65.64
2023-01-31T06:29:27.978Z,65.07
2023-01-31T06:31:55.105Z,64.68
2023-01-31T06:34:22.356Z,64.69
2023-01-31T06:36:49.512Z,64.49
2023-01-31T06:39:16.863Z,64.10
2023-01-31T06:41:44.008Z,63.97
2023-01-31T06:44:12.810Z,63.70
2023-01-31T06:46:39.948Z,63.31
2023-01-31T06:49:06.790Z,63.09
2023-01-31T06:51:34.039Z,62.69
2023-01-31T06:54:01.087Z,62.36
2023-01-31T06:56:28.651Z,62.07
2023-01-31T06:58:55.979Z,61.98
2023-01-31T07:01:23.970Z,61.67
2023-01-31T07:03:51.020Z,61.74
2023-01-31T07:06:20.008Z,61.46
2023-01-31T07:08:48.281Z,61.65
2023-01-31T07:11:15.336Z,61.24
2023-01-31T07:13:45.661Z,60.90
2023-01-31T07:16:14.342Z,60.98
2023-01-31T07:18:41.264Z,60.95
2023-01-31T07:21:08.636Z,61.17
2023-01-31T07:23:35.683Z,61.21
2023-01-31T07:26:04.594Z,61.12
2023-01-31T07:28:32.200Z,61.09
2023-01-31T07:31:06.968Z,60.90
2023-01-31T07:33:34.211Z,60.60
2023-01-31T07:36:04.141Z,60.34
2023-01-31T07:38:32.350Z,60.37
2023-01-31T07:41:00.576Z,60.34
2023-01-31T07:43:27.524Z,60.51
2023-01-31T07:45:55.079Z,60.38
2023-01-31T07:48:25.001Z,60.35
2023-01-31T07:50:53.067Z,60.61
2023-01-31T07:53:20.226Z,60.46
2023-01-31T07:55:47.652Z,60.42
2023-01-31T07:58:15.845Z,60.44
2023-01-31T08:01:01.582Z,60.52
2023-01-31T08:03:33.684Z,60.52
2023-01-31T08:06:07.982Z,60.37
2023-01-31T08:08:36.008Z,60.63
2023-01-31T08:11:04.768Z,60.68
2023-01-31T08:13:35.213Z,60.68
2023-01-31T08:16:03.974Z,61.11
2023-01-31T08:18:30.925Z,60.93
2023-01-31T08:20:58.696Z,60.69
2023-01-31T08:23:27.270Z,60.60
2023-01-31T08:26:04.761Z,60.54
2023-01-31T08:28:32.809Z,60.26
2023-01-31T08:31:08.573Z,60.23
2023-01-31T08:33:37.896Z,60.03
2023-01-31T08:36:16.194Z,60.15
2023-01-31T08:38:44.170Z,60.24
2023-01-31T08:41:12.085Z,60.11
2023-01-31T08:43:54.429Z,59.75
2023-01-31T08:46:29.582Z,59.50
2023-01-31T08:48:56.466Z,59.27
2023-01-31T08:51:24.186Z,58.93
2023-01-31T08:53:51.527Z,58.76
2023-01-31T08:56:20.830Z,58.98
2023-01-31T08:58:47.887Z,59.12
2023-01-31T09:01:16.222Z,58.89
2023-01-31T09:03:45.162Z,58.75
2023-01-31T09:06:17.512Z,58.73
2023-01-31T09:08:44.561Z,58.78
2023-01-31T09:11:16.732Z,58.58
2023-01-31T09:15:01.205Z,58.61
2023-01-31T09:17:28.767Z,58.54
2023-01-31T09:19:56.536Z,58.35
2023-01-31T09:22:23.766Z,58.31
2023-01-31T09:24:50.813Z,58.38
2023-01-31T09:27:17.861Z,58.22
2023-01-31T09:29:45.054Z,58.14
2023-01-31T09:32:12.156Z,58.26
2023-01-31T09:34:39.409Z,58.22
2023-01-31T09:37:06.561Z,58.58
2023-01-31T09:39:34.336Z,58.61
2023-01-31T09:42:13.864Z,58.56
2023-01-31T09:44:42.253Z,58.15
2023-01-31T09:47:21.983Z,57.90
2023-01-31T09:49:52.408Z,57.73
2023-01-31T09:52:19.967Z,57.54
2023-01-31T09:54:46.833Z,57.20
2023-01-31T09:57:17.032Z,57.24
2023-01-31T10:00:03.337Z,57.54
2023-01-31T10:02:38.375Z,57.42
2023-01-31T16:06:31.859Z,86.89
2023-01-31T16:09:01.205Z,79.83
2023-01-31T16:11:33.291Z,78.48
2023-01-31T16:14:02.577Z,78.11
2023-01-31T16:16:29.754Z,77.80
2023-01-31T16:18:57.988Z,77.65
2023-01-31T16:21:31.179Z,77.33
2023-01-31T16:23:59.556Z,76.60
2023-01-31T16:26:30.096Z,75.85
2023-01-31T16:28:59.018Z,75.35
2023-01-31T16:31:29.311Z,74.59
2023-01-31T16:33:59.640Z,74.35
2023-01-31T16:36:49.712Z,73.91
2023-01-31T16:39:30.077Z,73.31
2023-01-31T16:41:58.315Z,72.87
2023-01-31T16:44:28.359Z,72.52
2023-01-31T16:46:55.314Z,72.12
2023-01-31T16:49:29.569Z,71.45
2023-01-31T16:52:17.569Z,70.75
2023-01-31T16:55:12.358Z,70.32
2023-01-31T16:57:39.253Z,70.05
2023-01-31T17:00:24.587Z,69.53
2023-01-31T17:02:52.381Z,69.31
2023-01-31T17:05:24.609Z,68.85
2023-01-31T17:07:53.297Z,68.49
2023-01-31T17:10:22.700Z,68.52
2023-01-31T17:12:50.764Z,68.48
2023-01-31T17:15:19.921Z,68.27
2023-01-31T17:17:50.695Z,67.97
2023-01-31T17:20:19.076Z,67.76
2023-01-31T17:22:56.928Z,67.81
2023-01-31T17:25:34.265Z,67.79
2023-01-31T17:28:01.664Z,67.57
2023-01-31T17:30:30.034Z,67.25
2023-01-31T17:32:58.064Z,67.13
2023-01-31T17:35:39.138Z,66.82
2023-01-31T17:38:06.389Z,66.96
2023-01-31T17:40:33.716Z,66.78
2023-01-31T17:43:02.342Z,66.68
2023-01-31T17:45:29.376Z,66.59
2023-01-31T17:47:56.531Z,66.45
2023-01-31T17:50:28.082Z,66.23
2023-01-31T17:52:55.230Z,66.25
2023-01-31T17:55:24.112Z,66.19
2023-01-31T17:57:52.498Z,66.04
2023-01-31T18:00:20.355Z,65.92
2023-01-31T18:02:47.766Z,65.72
2023-01-31T18:05:24.593Z,65.66
2023-01-31T18:07:58.704Z,65.57
2023-01-31T18:10:25.954Z,65.57
2023-01-31T18:12:53.107Z,65.59
2023-01-31T18:15:20.578Z,65.38
2023-01-31T18:17:49.155Z,65.22
2023-01-31T18:20:18.659Z,65.15
2023-01-31T18:22:46.108Z,65.03
2023-01-31T18:25:13.357Z,65.20
2023-01-31T18:27:41.222Z,65.09
2023-01-31T18:30:09.192Z,65.02
2023-01-31T18:32:36.133Z,64.92
2023-01-31T18:35:06.047Z,64.99
2023-01-31T18:37:33.402Z,64.97
2023-01-31T18:40:00.451Z,65.15
2023-01-31T18:42:29.236Z,65.15
2023-01-31T18:44:56.194Z,65.06
2023-01-31T18:47:23.534Z,64.91
2023-01-31T18:49:50.712Z,64.85
2023-01-31T18:52:18.044Z,64.86
2023-01-31T18:54:48.547Z,64.97
2023-01-31T18:57:15.510Z,64.96
2023-01-31T18:59:42.583Z,64.89
2023-01-31T19:02:11.409Z,64.75
2023-01-31T19:04:38.710Z,64.70
2023-01-31T19:07:06.265Z,64.73
2023-01-31T19:09:33.543Z,64.84
2023-01-31T19:12:04.755Z,64.78
2023-01-31T19:14:32.824Z,64.63
2023-01-31T19:17:00.288Z,64.55
2023-01-31T19:19:27.540Z,64.59
2023-01-31T19:21:54.581Z,64.57
2023-01-31T19:24:21.634Z,64.48
2023-01-31T19:27:05.575Z,64.38
2023-01-31T19:29:33.030Z,64.39
2023-01-31T19:32:00.060Z,64.29
2023-01-31T19:34:27.233Z,64.26
2023-01-31T19:36:54.410Z,64.26
2023-01-31T19:39:21.527Z,64.36
2023-01-31T19:41:48.683Z,64.32
2023-01-31T19:44:16.023Z,64.10
2023-01-31T19:46:43.514Z,64.07
2023-01-31T19:49:10.525Z,64.05
2023-01-31T19:51:37.777Z,64.06
2023-01-31T19:54:06.261Z,64.31
2023-01-31T19:56:33.348Z,64.31
2023-01-31T19:59:00.669Z,64.38
2023-01-31T20:01:28.022Z,64.19
2023-01-31T20:03:55.209Z,64.24
2023-01-31T20:06:27.332Z,64.28
2023-01-31T20:08:59.161Z,64.23
2023-01-31T20:11:27.570Z,64.18
2023-01-31T20:13:56.867Z,64.17
2023-01-31T20:16:24.369Z,64.08
2023-01-31T20:18:52.723Z,64.04
2023-01-31T20:21:21.089Z,63.91
2023-01-31T20:23:51.002Z,64.03
2023-01-31T20:26:18.808Z,64.08
2023-01-31T20:28:46.111Z,64.00
2023-01-31T20:31:14.041Z,63.86
2023-01-31T20:33:41.239Z,63.65
2023-01-31T20:36:08.518Z,63.64
2023-01-31T20:38:37.378Z,63.81
2023-01-31T20:41:06.767Z,63.86
2023-01-31T20:43:34.130Z,63.78
2023-01-31T20:46:08.584Z,63.66
2023-01-31T20:48:35.715Z,63.59
2023-01-31T20:51:02.951Z,63.59
2023-01-31T20:53:30.194Z,63.54
2023-01-31T20:55:57.884Z,63.70
2023-01-31T20:58:27.058Z,63.87
2023-01-31T21:00:54.956Z,63.82
2023-01-31T21:03:22.177Z,63.62
2023-01-31T21:05:50.059Z,63.70
2023-01-31T21:08:18.217Z,63.84
2023-01-31T21:10:51.919Z,63.90
2023-01-31T21:13:20.008Z,63.95
2023-01-31T21:15:50.627Z,63.82
2023-01-31T21:18:17.986Z,63.74
2023-01-31T21:20:45.224Z,63.78
2023-01-31T21:23:12.170Z,63.80
2023-01-31T21:25:39.212Z,63.96
2023-01-31T21:28:06.271Z,64.07
2023-01-31T21:30:33.414Z,63.92
2023-01-31T21:33:00.374Z,63.91
2023-01-31T21:35:27.504Z,63.90
2023-01-31T21:37:54.859Z,64.02
2023-01-31T21:40:22.150Z,63.99
2023-01-31T21:42:53.364Z,63.97
2023-01-31T21:45:38.941Z,64.00
2023-01-31T21:48:28.613Z,64.10
2023-01-31T21:50:56.482Z,64.04
2023-01-31T21:53:23.636Z,64.11
2023-01-31T21:55:59.175Z,64.08
2023-01-31T21:58:26.464Z,64.22
2023-01-31T22:00:53.479Z,64.33
2023-01-31T22:03:20.531Z,64.28
2023-01-31T22:05:49.004Z,64.11
2023-01-31T22:08:16.251Z,64.31
2023-01-31T22:10:43.090Z,64.28
2023-01-31T22:13:10.763Z,64.32
2023-01-31T22:15:37.945Z,64.44
2023-01-31T22:18:05.360Z,64.41
2023-01-31T22:20:32.407Z,64.50
2023-01-31T22:23:00.171Z,64.70
2023-01-31T22:25:27.215Z,64.81
2023-01-31T22:27:56.311Z,64.72
2023-01-31T22:30:23.358Z,64.79
2023-01-31T22:32:51.334Z,64.69
2023-01-31T22:35:18.375Z,64.59
2023-01-31T22:37:45.521Z,64.91
2023-01-31T22:40:13.191Z,64.95
2023-01-31T22:42:43.619Z,64.91
2023-01-31T22:45:11.171Z,65.08
2023-01-31T22:47:38.730Z,65.29
2023-01-31T22:50:06.389Z,65.31
2023-01-31T22:52:33.332Z,65.46
2023-01-31T22:55:00.499Z,65.40
2023-01-31T22:57:27.524Z,65.42
2023-01-31T22:59:54.473Z,65.26
2023-01-31T23:02:21.417Z,64.96
2023-01-31T23:04:48.463Z,64.90
2023-01-31T23:07:16.227Z,64.78
2023-01-31T23:09:43.479Z,64.79
2023-01-31T23:12:10.731Z,64.90
2023-01-31T23:14:37.788Z,64.91
2023-01-31T23:17:23.154Z,64.71
2023-01-31T23:19:53.757Z,64.82
2023-01-31T23:22:20.729Z,64.79
2023-01-31T23:24:47.571Z,65.01
2023-01-31T23:27:14.928Z,64.96
2023-01-31T23:29:41.973Z,64.78
2023-01-31T23:32:09.146Z,64.52
2023-01-31T23:34:36.167Z,64.58
2023-01-31T23:37:04.037Z,64.68
2023-01-31T23:39:31.389Z,64.78
2023-01-31T23:41:58.332Z,65.02
2023-01-31T23:44:25.587Z,65.06
2023-01-31T23:46:52.545Z,65.06
2023-01-31T23:49:19.472Z,65.27
2023-01-31T23:51:46.519Z,65.41
2023-01-31T23:54:13.777Z,65.42
2023-01-31T23:56:40.951Z,65.26
2023-01-31T23:59:08.070Z,65.15
